Preview of NWS' New Version of Forecast
This preview is not operational and should not be used for support decisions.

Terminal Aerodrome Forecast (TAF)

Issued by National Weather Service (NWS)

                            
000
FTUS46 KMFR 251120
TAFRBG
TAF
KRBG 251120Z 2512/2612 VRB03KT P6SM SCT015 OVC030
     FM251800 01007KT P6SM FEW030
     FM252000 01010G16KT P6SM SKC
     FM260000 01015G21KT P6SM SKC
     FM260300 01006KT P6SM SKC=